createdAt,value
2022-09-16T00:01:49.245Z,16.55
2022-09-16T00:06:50.581Z,16.62
2022-09-16T00:11:51.909Z,16.71
2022-09-16T00:16:53.229Z,16.73
2022-09-16T00:21:54.493Z,16.59
2022-09-16T00:26:55.793Z,16.58
2022-09-16T00:32:00.034Z,16.64
2022-09-16T00:37:03.254Z,16.40
2022-09-16T00:42:05.438Z,16.31
2022-09-16T00:47:06.860Z,16.16
2022-09-16T00:52:08.377Z,15.99
2022-09-16T00:57:12.889Z,16.04
2022-09-16T01:02:17.815Z,16.01
2022-09-16T01:07:47.295Z,15.84
2022-09-16T01:12:59.795Z,16.08
2022-09-16T01:18:19.323Z,16.02
2022-09-16T01:23:41.414Z,16.18
2022-09-16T01:28:54.533Z,16.20
2022-09-16T01:34:00.791Z,16.04
2022-09-16T01:39:16.031Z,15.97
2022-09-16T01:44:24.706Z,16.10
2022-09-16T01:49:25.960Z,15.94
2022-09-16T01:54:40.533Z,16.02
2022-09-16T01:59:54.457Z,15.98
2022-09-16T02:04:57.727Z,16.12
2022-09-16T02:10:08.585Z,16.17
2022-09-16T02:15:18.699Z,16.20
2022-09-16T02:20:25.780Z,16.00
2022-09-16T02:25:29.071Z,16.07
2022-09-16T02:30:31.564Z,15.96
2022-09-16T02:35:36.863Z,15.85
2022-09-16T02:40:46.170Z,15.71
2022-09-16T02:45:56.815Z,15.88
2022-09-16T02:51:15.203Z,15.74
2022-09-16T02:56:36.921Z,15.68
2022-09-16T03:01:42.010Z,15.76
2022-09-16T03:06:44.134Z,15.75
2022-09-16T03:11:58.214Z,15.72
2022-09-16T03:17:07.153Z,15.62
2022-09-16T03:22:15.638Z,15.52
2022-09-16T03:27:26.409Z,15.64
2022-09-16T03:32:34.017Z,15.63
2022-09-16T03:37:39.436Z,15.61
2022-09-16T03:42:43.258Z,15.56
2022-09-16T03:47:46.402Z,15.66
2022-09-16T03:52:47.897Z,15.68
2022-09-16T03:57:49.128Z,15.73
2022-09-16T04:02:50.484Z,15.71
2022-09-16T04:07:51.885Z,15.60
2022-09-16T04:12:57.490Z,15.61
2022-09-16T04:18:00.182Z,15.50
2022-09-16T04:23:01.510Z,15.67
2022-09-16T04:28:03.247Z,15.44
2022-09-16T04:33:04.645Z,15.43
2022-09-16T04:38:05.949Z,15.56
2022-09-16T04:43:07.210Z,15.52
2022-09-16T04:48:08.441Z,15.65
2022-09-16T04:53:09.682Z,15.51
2022-09-16T04:58:11.219Z,15.49
2022-09-16T05:03:12.549Z,15.45
2022-09-16T05:08:13.863Z,15.50
2022-09-16T05:13:15.199Z,15.53
2022-09-16T05:18:16.575Z,15.49
2022-09-16T05:23:17.835Z,15.49
2022-09-16T05:28:19.308Z,15.45
2022-09-16T05:33:20.618Z,15.35
2022-09-16T05:38:21.852Z,15.36
2022-09-16T05:43:23.096Z,15.33
2022-09-16T05:48:25.640Z,15.36
2022-09-16T05:53:29.164Z,15.46
2022-09-16T05:58:32.490Z,15.52
2022-09-16T06:03:35.393Z,15.62
2022-09-16T06:08:37.075Z,15.72
2022-09-16T06:13:39.005Z,15.81
2022-09-16T06:18:40.741Z,15.88
2022-09-16T06:23:42.085Z,15.92
2022-09-16T06:28:44.155Z,16.02
2022-09-16T06:33:45.826Z,16.03
2022-09-16T06:38:48.324Z,15.90
2022-09-16T06:43:52.976Z,16.01
2022-09-16T06:48:58.691Z,15.93
2022-09-16T06:54:02.898Z,16.01
2022-09-16T06:59:05.404Z,16.03
2022-09-16T07:04:13.523Z,15.98
2022-09-16T07:09:15.116Z,16.15
2022-09-16T07:14:16.389Z,16.50
2022-09-16T07:19:17.789Z,16.72
2022-09-16T07:24:19.316Z,16.32
2022-09-16T07:29:20.800Z,16.18
2022-09-16T07:34:22.252Z,16.22
2022-09-16T07:39:25.605Z,16.05
2022-09-16T07:44:26.993Z,16.49
2022-09-16T07:49:28.242Z,16.72
2022-09-16T07:54:29.529Z,17.11
2022-09-16T07:59:30.799Z,17.15
2022-09-16T08:04:32.048Z,17.35
2022-09-16T08:09:40.970Z,16.55
2022-09-16T08:14:44.194Z,16.59
2022-09-16T08:19:45.481Z,17.03
2022-09-16T08:24:46.789Z,17.31
2022-09-16T08:29:48.050Z,17.78
2022-09-16T08:34:49.330Z,17.78
2022-09-16T08:39:51.392Z,18.42
2022-09-16T08:45:06.657Z,19.14
2022-09-16T08:50:30.101Z,18.02
2022-09-16T08:55:39.976Z,17.19
2022-09-16T09:00:44.207Z,17.26
2022-09-16T09:05:57.582Z,18.19
2022-09-16T09:11:15.079Z,18.99
2022-09-16T09:16:40.306Z,19.65
2022-09-16T09:21:51.901Z,19.50
2022-09-16T09:27:22.617Z,19.08
2022-09-16T09:32:49.126Z,19.80
2022-09-16T09:38:18.712Z,19.84
2022-09-16T09:43:35.378Z,19.84
2022-09-16T09:48:48.542Z,19.67
2022-09-16T09:53:55.042Z,20.46
2022-09-16T09:59:08.698Z,20.66
2022-09-16T10:04:14.829Z,19.86
2022-09-16T10:09:17.455Z,20.71
2022-09-16T10:14:25.605Z,19.41
2022-09-16T10:19:28.348Z,19.04
2022-09-16T10:24:33.359Z,19.08
2022-09-16T10:29:34.802Z,18.44
2022-09-16T10:34:42.158Z,18.07
2022-09-16T10:39:49.990Z,18.17
2022-09-16T10:44:53.811Z,18.19
2022-09-16T10:49:58.878Z,18.10
2022-09-16T10:55:19.419Z,18.48
2022-09-16T11:00:28.055Z,18.89
2022-09-16T11:05:46.665Z,18.57
2022-09-16T11:11:02.004Z,21.03
2022-09-16T11:16:50.139Z,26.60
2022-09-16T11:22:07.685Z,23.98
2022-09-16T11:27:22.437Z,24.14
2022-09-16T11:32:51.160Z,22.18
2022-09-16T11:38:10.750Z,21.75
2022-09-16T11:43:40.481Z,20.60
2022-09-16T11:49:11.354Z,19.43
2022-09-16T11:54:32.973Z,18.61
2022-09-16T12:00:02.060Z,17.54
2022-09-16T12:05:22.751Z,17.24
2022-09-16T12:10:28.958Z,16.96
2022-09-16T12:15:46.068Z,16.86
2022-09-16T12:20:53.311Z,17.04
2022-09-16T12:26:18.210Z,17.32
2022-09-16T12:31:47.694Z,17.55
2022-09-16T12:36:58.080Z,18.66
2022-09-16T12:42:21.050Z,19.75
2022-09-16T12:47:43.455Z,22.03
2022-09-16T12:53:03.283Z,29.79
2022-09-16T12:58:21.110Z,31.68
2022-09-16T13:03:28.607Z,34.53
2022-09-16T13:08:33.734Z,35.33
2022-09-16T13:13:42.921Z,35.52
2022-09-16T13:18:50.389Z,34.82
2022-09-16T13:24:00.701Z,30.80
2022-09-16T13:29:01.984Z,27.52
2022-09-16T13:34:16.135Z,25.92
2022-09-16T13:39:38.160Z,24.29
2022-09-16T13:44:39.679Z,23.51
2022-09-16T13:49:43.416Z,23.75
2022-09-16T13:55:09.880Z,22.41
2022-09-16T14:00:12.727Z,21.38
2022-09-16T14:05:32.869Z,20.61
2022-09-16T14:10:57.274Z,20.04
2022-09-16T14:15:59.567Z,19.75
2022-09-16T14:21:06.428Z,19.64
2022-09-16T14:26:34.809Z,19.38
2022-09-16T14:31:37.162Z,19.50
2022-09-16T14:36:40.551Z,20.00
2022-09-16T14:41:55.789Z,20.19
2022-09-16T14:47:47.029Z,20.02
2022-09-16T14:52:55.722Z,19.56
2022-09-16T14:57:58.369Z,19.27
2022-09-16T15:03:12.045Z,19.33
2022-09-16T15:08:25.200Z,19.08
2022-09-16T15:13:29.977Z,19.39
2022-09-16T15:18:34.364Z,19.48
2022-09-16T15:23:39.670Z,18.93
2022-09-16T15:28:53.242Z,17.93
2022-09-16T15:33:55.975Z,17.02
2022-09-16T15:38:58.108Z,16.41
2022-09-16T15:44:00.746Z,16.11
2022-09-16T15:49:02.239Z,16.37
2022-09-16T15:54:15.315Z,16.36
2022-09-16T15:59:33.921Z,16.13
2022-09-16T16:04:35.230Z,15.98
2022-09-16T16:09:42.285Z,15.89
2022-09-16T16:14:44.223Z,16.07
2022-09-16T16:19:50.377Z,16.00
2022-09-16T16:24:51.639Z,16.16
2022-09-16T16:29:52.920Z,15.85
2022-09-16T16:34:57.971Z,15.66
2022-09-16T16:39:59.355Z,15.74
2022-09-16T16:45:00.658Z,15.71
2022-09-16T16:50:02.044Z,15.69
2022-09-16T16:55:03.706Z,15.79
2022-09-16T17:00:06.416Z,15.48
2022-09-16T17:05:08.194Z,15.46
2022-09-16T17:10:10.565Z,15.50
2022-09-16T17:15:11.861Z,15.47
2022-09-16T17:20:13.294Z,15.45
2022-09-16T17:25:15.089Z,15.51
2022-09-16T17:30:16.902Z,15.51
2022-09-16T17:35:18.181Z,15.45
2022-09-16T17:40:28.418Z,15.25
2022-09-16T17:45:37.907Z,14.87
2022-09-16T17:50:41.808Z,14.86
2022-09-16T17:55:43.071Z,15.04
2022-09-16T18:00:55.169Z,14.97
2022-09-16T18:06:06.314Z,14.99
2022-09-16T18:11:09.225Z,14.80
2022-09-16T18:16:16.245Z,14.72
2022-09-16T18:21:19.641Z,14.89
2022-09-16T18:26:21.152Z,14.99
2022-09-16T18:31:24.033Z,14.92
2022-09-16T18:36:29.815Z,14.77
2022-09-16T18:41:35.300Z,14.78
2022-09-16T18:46:38.210Z,14.76
2022-09-16T18:51:41.873Z,14.78
2022-09-16T18:56:43.137Z,14.79
2022-09-16T19:01:48.501Z,14.70
2022-09-16T19:06:53.584Z,14.53
2022-09-16T19:11:54.954Z,14.44
2022-09-16T19:16:56.334Z,14.24
2022-09-16T19:21:57.699Z,14.15
2022-09-16T19:26:58.971Z,13.89
2022-09-16T19:32:00.681Z,13.83
2022-09-16T19:37:02.114Z,13.88
2022-09-16T19:42:03.648Z,13.79
2022-09-16T19:47:05.060Z,13.58
2022-09-16T19:52:06.350Z,13.63
2022-09-16T19:57:07.632Z,13.66
2022-09-16T20:02:11.038Z,13.68
2022-09-16T20:07:16.824Z,13.73
2022-09-16T20:12:18.741Z,13.69
2022-09-16T20:17:19.995Z,13.58
2022-09-16T20:22:21.250Z,13.63
2022-09-16T20:27:22.893Z,13.63
2022-09-16T20:32:24.162Z,13.74
2022-09-16T20:37:25.425Z,13.72
2022-09-16T20:42:26.715Z,13.68
2022-09-16T20:47:30.262Z,13.83
2022-09-16T20:52:33.137Z,13.79
2022-09-16T20:57:34.448Z,13.81
2022-09-16T21:02:35.812Z,13.71
2022-09-16T21:07:37.214Z,13.66
2022-09-16T21:12:38.565Z,13.69
2022-09-16T21:17:39.896Z,13.78
2022-09-16T21:22:44.619Z,13.70
2022-09-16T21:27:45.932Z,13.57
2022-09-16T21:32:47.273Z,13.24
2022-09-16T21:37:48.626Z,13.23
2022-09-16T21:42:50.134Z,13.22
2022-09-16T21:47:52.992Z,13.29
2022-09-16T21:52:54.404Z,13.29
2022-09-16T21:57:55.832Z,13.18
2022-09-16T22:02:57.192Z,13.17
2022-09-16T22:08:02.761Z,13.19
2022-09-16T22:13:04.386Z,13.28
2022-09-16T22:18:05.659Z,13.26
2022-09-16T22:23:06.941Z,13.19
2022-09-16T22:28:08.219Z,13.16
2022-09-16T22:33:09.515Z,13.06
2022-09-16T22:38:10.774Z,13.07
2022-09-16T22:43:12.047Z,13.00
2022-09-16T22:48:13.454Z,13.04
2022-09-16T22:53:14.697Z,13.01
2022-09-16T22:58:15.965Z,13.11
2022-09-16T23:03:18.678Z,13.17
2022-09-16T23:08:19.973Z,13.08
2022-09-16T23:13:21.829Z,12.99
2022-09-16T23:18:23.399Z,12.84
2022-09-16T23:23:24.838Z,12.67
2022-09-16T23:28:26.206Z,12.61
2022-09-16T23:33:28.725Z,12.61
2022-09-16T23:38:30.368Z,12.58
2022-09-16T23:43:31.985Z,12.52
2022-09-16T23:48:33.857Z,12.57
2022-09-16T23:53:36.449Z,12.56
2022-09-16T23:58:38.322Z,12.54
